createdAt,value
2019-01-12T00:01:18.915Z,5.10
2019-01-12T00:06:17.499Z,5.30
2019-01-12T00:08:46.875Z,5.30
2019-01-12T00:13:45.685Z,5.30
2019-01-12T00:16:14.975Z,5.30
2019-01-12T00:21:13.418Z,5.30
2019-01-12T00:26:12.123Z,5.30
2019-01-12T00:28:41.460Z,5.20
2019-01-12T00:33:39.933Z,5.30
2019-01-12T00:38:38.366Z,5.20
2019-01-12T00:41:07.718Z,5.30
2019-01-12T00:46:06.177Z,5.10
2019-01-12T00:53:33.746Z,5.40
2019-01-12T00:56:03.101Z,5.40
2019-01-12T00:58:32.457Z,5.10
2019-01-12T01:03:30.924Z,5.10
2019-01-12T01:06:00.297Z,5.30
2019-01-12T01:10:58.767Z,5.10
2019-01-12T01:18:26.585Z,5.20
2019-01-12T01:23:25.331Z,5.00
2019-01-12T01:25:54.695Z,5.10
2019-01-12T01:30:53.237Z,4.90
2019-01-12T01:33:27.877Z,5.00
2019-01-12T01:35:53.679Z,5.20
2019-01-12T01:40:52.987Z,5.40
2019-01-12T01:43:22.313Z,4.90
2019-01-12T01:50:49.994Z,5.00
2019-01-12T01:53:19.353Z,5.30
2019-01-12T01:58:17.786Z,5.10
2019-01-12T02:05:46.296Z,5.30
2019-01-12T02:08:15.628Z,5.40
2019-01-12T02:13:14.070Z,5.30
2019-01-12T02:20:42.076Z,5.50
2019-01-12T02:25:40.508Z,5.50
2019-01-12T02:30:38.993Z,5.40
2019-01-12T02:33:08.375Z,5.60
2019-01-12T02:38:06.807Z,5.40
2019-01-12T02:48:03.489Z,5.60
2019-01-12T03:00:29.318Z,5.50
2019-01-12T03:05:27.801Z,5.50
2019-01-12T03:07:57.162Z,5.60
2019-01-12T03:25:21.216Z,5.30
2019-01-12T03:30:19.965Z,5.50
2019-01-12T03:42:46.667Z,6.00
2019-01-12T03:47:46.621Z,5.70
2019-01-12T04:00:21.326Z,5.40
2019-01-12T04:02:50.843Z,5.40
2019-01-12T04:10:18.557Z,5.70
2019-01-12T04:15:17.096Z,5.50
2019-01-12T04:30:16.231Z,5.50
2019-01-12T04:32:45.656Z,6.00
2019-01-12T04:35:15.061Z,5.50
2019-01-12T04:40:17.038Z,5.30
2019-01-12T04:45:15.485Z,5.50
2019-01-12T04:50:15.848Z,5.50
2019-01-12T04:55:14.831Z,5.60
2019-01-12T05:05:14.818Z,5.40
2019-01-12T05:07:44.225Z,5.60
2019-01-12T05:15:14.523Z,6.30
2019-01-12T05:27:48.006Z,5.60
2019-01-12T05:32:48.474Z,5.90
2019-01-12T05:40:16.342Z,5.70
2019-01-12T05:45:15.140Z,5.80
2019-01-12T05:52:43.225Z,5.90
2019-01-12T05:57:41.739Z,5.60
2019-01-12T06:00:15.517Z,5.60
2019-01-12T06:07:43.075Z,5.60
2019-01-12T06:20:15.187Z,5.70
2019-01-12T06:25:13.880Z,5.80
2019-01-12T06:30:16.327Z,5.80
2019-01-12T06:32:45.690Z,5.70
2019-01-12T06:52:45.794Z,5.70
2019-01-12T06:57:44.339Z,5.90
2019-01-12T07:07:43.435Z,5.90
2019-01-12T07:17:44.005Z,6.10
2019-01-12T07:20:17.509Z,6.00
2019-01-12T07:22:46.864Z,5.80
2019-01-12T07:35:17.900Z,6.00
2019-01-12T07:47:43.884Z,5.80
2019-01-12T07:52:43.465Z,5.60
2019-01-12T07:57:41.953Z,5.50
2019-01-12T08:02:46.432Z,5.50
2019-01-12T08:05:16.929Z,5.60
2019-01-12T08:22:44.506Z,5.40
2019-01-12T08:25:14.302Z,5.60
2019-01-12T08:30:16.582Z,5.90
2019-01-12T08:32:45.992Z,5.90
2019-01-12T08:37:44.950Z,6.00
2019-01-12T08:40:14.752Z,6.00
2019-01-12T08:42:44.348Z,5.90
2019-01-12T08:47:42.957Z,6.10
2019-01-12T08:52:47.100Z,6.30
2019-01-12T08:55:16.740Z,6.10
2019-01-12T09:02:47.084Z,6.30
2019-01-12T09:07:45.865Z,6.30
2019-01-12T09:10:19.701Z,6.30
2019-01-12T09:12:49.200Z,6.40
2019-01-12T09:17:47.695Z,6.30
2019-01-12T09:20:17.576Z,6.20
2019-01-12T09:25:17.204Z,6.40
2019-01-12T09:27:46.726Z,6.60
2019-01-12T09:47:47.699Z,6.30
2019-01-12T09:57:45.903Z,6.80
2019-01-12T10:02:50.508Z,6.90
2019-01-12T10:10:20.848Z,7.00
2019-01-12T10:12:50.526Z,6.70
2019-01-12T10:17:49.066Z,7.00
2019-01-12T10:20:19.802Z,7.00
2019-01-12T10:22:49.357Z,7.10
2019-01-12T10:40:19.643Z,7.10
2019-01-12T10:42:49.569Z,7.00
2019-01-12T10:47:50.055Z,7.10
2019-01-12T10:52:57.142Z,7.30
2019-01-12T10:57:55.699Z,7.00
2019-01-12T11:03:00.292Z,7.30
2019-01-12T11:05:29.718Z,7.30
2019-01-12T11:10:28.143Z,7.30
2019-01-12T11:15:26.638Z,7.30
2019-01-12T11:27:52.494Z,7.00
2019-01-12T11:32:51.039Z,6.40
2019-01-12T11:35:20.351Z,6.70
2019-01-12T11:45:21.741Z,6.80
2019-01-12T11:47:51.229Z,6.70
2019-01-12T11:50:20.748Z,6.80
2019-01-12T11:55:19.833Z,7.30
2019-01-12T12:07:52.265Z,7.10
2019-01-12T12:22:51.188Z,7.00
2019-01-12T12:32:50.754Z,7.00
2019-01-12T12:47:50.776Z,7.30
2019-01-12T13:05:20.999Z,7.20
2019-01-12T13:17:49.144Z,6.80
2019-01-12T13:30:23.782Z,6.90
2019-01-12T13:50:24.220Z,6.60
2019-01-12T13:52:53.593Z,6.60
2019-01-12T13:57:52.479Z,6.70
2019-01-12T14:00:28.961Z,6.50
2019-01-12T14:15:24.886Z,6.40
2019-01-12T14:22:55.075Z,6.30
2019-01-12T14:30:24.237Z,5.90
2019-01-12T14:57:49.918Z,6.00
2019-01-12T15:00:27.547Z,5.50
2019-01-12T15:02:56.989Z,5.50
2019-01-12T15:07:57.327Z,5.10
2019-01-12T15:10:26.688Z,5.30
2019-01-12T15:15:25.239Z,5.40
2019-01-12T15:40:26.370Z,5.30
2019-01-12T15:45:26.740Z,5.10
2019-01-12T15:57:54.691Z,5.70
2019-01-12T16:02:55.441Z,5.10
2019-01-12T16:15:24.059Z,5.40
2019-01-12T16:20:29.960Z,5.50
2019-01-12T16:22:59.315Z,5.30
2019-01-12T16:25:28.700Z,5.20
2019-01-12T16:40:26.464Z,5.50
2019-01-12T16:45:25.021Z,6.30
2019-01-12T16:50:24.220Z,5.80
2019-01-12T16:52:53.589Z,5.80
2019-01-12T16:57:52.033Z,5.90
2019-01-12T17:02:53.502Z,5.60
2019-01-12T17:12:51.527Z,5.70
2019-01-12T17:25:22.651Z,5.60
2019-01-12T17:27:52.002Z,5.60
2019-01-12T17:35:22.322Z,5.70
2019-01-12T17:45:22.730Z,5.80
2019-01-12T17:50:23.822Z,5.70
2019-01-12T17:52:53.140Z,5.90
2019-01-12T17:55:24.715Z,6.00
2019-01-12T18:00:29.216Z,5.80
2019-01-12T18:02:58.577Z,5.90
2019-01-12T18:05:27.905Z,5.90
2019-01-12T18:22:51.956Z,5.90
2019-01-12T18:30:27.141Z,6.00
2019-01-12T18:32:56.501Z,5.90
2019-01-12T18:40:24.139Z,6.10
2019-01-12T18:42:53.865Z,5.80
2019-01-12T19:07:50.355Z,5.60
2019-01-12T19:12:48.807Z,5.90
2019-01-12T19:15:27.254Z,6.00
2019-01-12T19:17:56.628Z,5.80
2019-01-12T19:22:55.240Z,5.90
2019-01-12T19:27:53.708Z,6.10
2019-01-12T19:30:24.210Z,6.00
2019-01-12T19:37:51.776Z,5.90
2019-01-12T19:40:23.113Z,5.70
2019-01-12T19:47:52.364Z,6.00
2019-01-12T20:02:52.178Z,6.00
2019-01-12T20:07:50.725Z,5.70
2019-01-12T20:10:20.823Z,5.90
2019-01-12T20:12:50.201Z,5.90
2019-01-12T20:20:21.269Z,5.90
2019-01-12T20:22:52.115Z,5.60
2019-01-12T20:30:46.634Z,5.90
2019-01-12T20:33:32.311Z,5.80
2019-01-12T20:47:21.545Z,5.70
2019-01-12T20:58:04.200Z,5.80
2019-01-12T21:00:57.549Z,5.70
2019-01-12T21:03:55.847Z,5.80
2019-01-12T21:06:41.788Z,5.70
2019-01-12T21:09:33.653Z,5.60
2019-01-12T21:12:36.446Z,5.80
2019-01-12T21:20:10.938Z,5.90
2019-01-12T21:27:39.399Z,5.80
2019-01-12T21:35:10.523Z,5.90
2019-01-12T21:37:39.938Z,5.90
2019-01-12T22:00:17.121Z,5.90
2019-01-12T22:02:46.507Z,6.10
2019-01-12T22:07:45.049Z,6.10
2019-01-12T22:12:48.886Z,5.90
2019-01-12T22:15:18.314Z,6.20
2019-01-12T22:20:17.853Z,6.00
2019-01-12T22:22:47.230Z,6.20
2019-01-12T22:35:17.479Z,6.00
2019-01-12T22:40:20.228Z,6.20
2019-01-12T23:02:58.480Z,6.30
2019-01-12T23:05:27.813Z,6.90
2019-01-12T23:20:22.722Z,6.10
2019-01-12T23:27:50.246Z,6.30
2019-01-12T23:32:48.754Z,6.20
2019-01-12T23:35:18.085Z,6.00
2019-01-12T23:40:16.671Z,6.00
2019-01-12T23:47:44.715Z,5.80
2019-01-12T23:52:44.240Z,5.80
2019-01-12T23:55:13.755Z,5.70
2019-01-12T23:57:43.106Z,5.60
